createdAt,value
2022-08-02T00:01:17.380Z,72.29
2022-08-02T00:06:16.152Z,72.39
2022-08-02T00:11:16.087Z,72.59
2022-08-02T00:16:16.979Z,72.59
2022-08-02T00:21:15.990Z,72.79
2022-08-02T00:26:15.926Z,72.79
2022-08-02T00:31:15.867Z,73.13
2022-08-02T00:36:15.807Z,73.33
2022-08-02T00:41:15.760Z,73.43
2022-08-02T00:46:22.688Z,73.63
2022-08-02T00:51:15.593Z,73.53
2022-08-02T00:56:15.531Z,73.72
2022-08-02T01:01:15.503Z,73.96
2022-08-02T01:06:15.411Z,73.72
2022-08-02T01:11:15.343Z,74.06
2022-08-02T01:16:15.322Z,74.26
2022-08-02T01:21:15.239Z,74.56
2022-08-02T01:26:15.156Z,74.80
2022-08-02T01:31:15.100Z,75.13
2022-08-02T01:36:15.039Z,75.54
2022-08-02T01:41:14.983Z,75.93
2022-08-02T01:46:14.909Z,76.47
2022-08-02T01:51:14.885Z,77.08
2022-08-02T01:56:14.789Z,77.08
2022-08-02T02:01:18.447Z,77.08
2022-08-02T02:06:14.672Z,77.41
2022-08-02T02:12:11.940Z,77.41
2022-08-02T02:16:15.541Z,77.81
2022-08-02T02:21:14.456Z,77.91
2022-08-02T02:26:14.412Z,78.15
2022-08-02T02:31:14.460Z,78.05
2022-08-02T02:36:14.313Z,78.15
2022-08-02T02:41:14.243Z,78.66
2022-08-02T02:46:14.172Z,78.66
2022-08-02T02:51:14.445Z,78.45
2022-08-02T02:56:14.045Z,78.25
2022-08-02T03:01:14.010Z,78.35
2022-08-02T03:06:14.982Z,78.69
2022-08-02T03:11:13.968Z,78.69
2022-08-02T03:16:13.788Z,78.69
2022-08-02T03:21:13.819Z,79.19
2022-08-02T03:26:13.818Z,79.23
2022-08-02T03:31:13.597Z,79.43
2022-08-02T03:36:13.561Z,79.63
2022-08-02T03:41:13.472Z,80.17
2022-08-02T03:46:13.409Z,80.57
2022-08-02T03:51:13.337Z,80.68
2022-08-02T03:56:13.281Z,80.77
2022-08-02T04:01:13.275Z,80.98
2022-08-02T04:06:13.140Z,80.63
2022-08-02T04:11:13.098Z,80.94
2022-08-02T04:16:13.036Z,81.04
2022-08-02T04:21:12.966Z,80.94
2022-08-02T04:26:12.918Z,81.04
2022-08-02T04:31:12.842Z,80.94
2022-08-02T04:36:12.793Z,80.94
2022-08-02T04:41:12.731Z,80.83
2022-08-02T04:46:12.660Z,80.83
2022-08-02T04:51:12.595Z,80.90
2022-08-02T04:56:12.533Z,80.80
2022-08-02T05:01:12.538Z,80.76
2022-08-02T05:06:18.826Z,80.26
2022-08-02T05:11:13.391Z,80.62
2022-08-02T05:16:12.294Z,80.12
2022-08-02T05:21:12.231Z,79.78
2022-08-02T05:26:12.166Z,79.88
2022-08-02T05:31:13.121Z,79.78
2022-08-02T05:36:12.108Z,79.14
2022-08-02T05:41:12.010Z,79.34
2022-08-02T05:46:11.924Z,79.10
2022-08-02T05:51:11.862Z,78.97
2022-08-02T05:56:11.799Z,78.56
2022-08-02T06:01:11.774Z,78.23
2022-08-02T06:06:11.684Z,77.69
2022-08-02T06:11:11.617Z,77.15
2022-08-02T06:16:14.204Z,76.68
2022-08-02T06:22:32.542Z,76.25
2022-08-02T06:26:12.418Z,75.11
2022-08-02T06:31:11.336Z,74.77
2022-08-02T06:36:11.297Z,74.04
2022-08-02T06:41:12.127Z,73.21
2022-08-02T06:47:10.148Z,72.68
2022-08-02T06:51:12.104Z,71.65
2022-08-02T06:56:11.035Z,71.01
2022-08-02T07:01:11.004Z,70.98
2022-08-02T07:06:10.910Z,70.42
2022-08-02T07:11:10.846Z,69.29
2022-08-02T07:16:10.777Z,68.96
2022-08-02T07:21:10.710Z,68.13
2022-08-02T07:26:10.654Z,67.31
2022-08-02T07:31:10.589Z,66.78
2022-08-02T07:36:16.621Z,66.25
2022-08-02T07:41:11.530Z,65.80
2022-08-02T07:46:10.425Z,64.97
2022-08-02T07:51:13.033Z,64.12
2022-08-02T07:56:11.336Z,63.20
2022-08-02T08:01:10.280Z,62.15
2022-08-02T08:06:10.165Z,60.94
2022-08-02T08:11:10.104Z,60.12
2022-08-02T08:16:10.051Z,59.30
2022-08-02T08:21:09.976Z,59.05
2022-08-02T08:26:12.770Z,58.26
2022-08-02T08:31:10.857Z,57.54
2022-08-02T08:36:09.805Z,56.41
2022-08-02T08:41:09.743Z,56.68
2022-08-02T08:46:09.725Z,55.44
2022-08-02T08:51:09.668Z,54.44
2022-08-02T08:56:14.081Z,53.01
2022-08-02T09:01:10.553Z,52.08
2022-08-02T09:06:09.442Z,54.68
2022-08-02T09:11:09.380Z,54.14
2022-08-02T09:16:11.302Z,52.91
2022-08-02T09:21:09.264Z,51.73
2022-08-02T09:26:09.203Z,50.98
2022-08-02T09:31:09.144Z,49.85
2022-08-02T09:36:09.127Z,50.66
2022-08-02T09:41:09.013Z,50.59
2022-08-02T09:46:08.970Z,48.90
2022-08-02T09:51:08.901Z,46.31
2022-08-02T09:56:12.695Z,44.62
2022-08-02T10:01:09.842Z,44.65
2022-08-02T10:06:08.796Z,44.24
2022-08-02T10:11:08.688Z,43.46
2022-08-02T10:16:08.663Z,44.59
2022-08-02T10:21:08.563Z,44.42
2022-08-02T10:26:08.551Z,45.07
2022-08-02T10:31:08.435Z,46.99
2022-08-02T10:36:08.395Z,45.56
2022-08-02T10:41:08.317Z,45.10
2022-08-02T10:46:08.265Z,44.20
2022-08-02T10:51:08.207Z,43.38
2022-08-02T10:56:09.441Z,41.88
2022-08-02T11:01:08.117Z,41.93
2022-08-02T11:06:08.032Z,42.94
2022-08-02T11:11:07.970Z,43.09
2022-08-02T11:16:11.498Z,42.91
2022-08-02T11:21:07.867Z,42.03
2022-08-02T11:26:11.384Z,41.63
2022-08-02T11:31:07.730Z,42.25
2022-08-02T11:36:07.689Z,43.08
2022-08-02T11:41:09.913Z,43.43
2022-08-02T11:46:07.649Z,42.72
2022-08-02T11:51:07.541Z,41.99
2022-08-02T11:56:07.439Z,43.15
2022-08-02T12:01:07.379Z,42.70
2022-08-02T12:06:16.192Z,41.78
2022-08-02T12:11:08.272Z,40.54
2022-08-02T12:16:08.765Z,40.78
2022-08-02T12:21:07.188Z,42.08
2022-08-02T12:26:07.107Z,42.71
2022-08-02T12:31:07.061Z,43.63
2022-08-02T12:36:06.984Z,43.46
2022-08-02T12:41:30.397Z,44.28
2022-08-02T12:46:07.914Z,44.89
2022-08-02T12:51:06.849Z,45.59
2022-08-02T12:56:06.781Z,45.59
2022-08-02T13:01:06.718Z,45.79
2022-08-02T13:06:23.043Z,45.50
2022-08-02T13:11:07.634Z,45.67
2022-08-02T13:16:06.501Z,45.62
2022-08-02T13:21:06.520Z,44.27
2022-08-02T13:26:06.413Z,43.64
2022-08-02T13:31:34.236Z,41.06
2022-08-02T13:36:09.091Z,40.66
2022-08-02T13:41:06.263Z,39.76
2022-08-02T13:46:06.315Z,39.45
2022-08-02T13:51:06.072Z,39.10
2022-08-02T13:56:06.111Z,40.23
2022-08-02T14:01:06.027Z,40.76
2022-08-02T14:06:05.925Z,40.68
2022-08-02T14:11:05.854Z,41.87
2022-08-02T14:16:05.810Z,41.33
2022-08-02T14:21:05.781Z,43.01
2022-08-02T14:26:05.760Z,43.69
2022-08-02T14:31:05.645Z,43.30
2022-08-02T14:36:05.589Z,43.26
2022-08-02T14:41:05.528Z,42.26
2022-08-02T14:46:05.447Z,42.77
2022-08-02T14:51:05.383Z,43.18
2022-08-02T14:56:05.311Z,43.42
2022-08-02T15:01:05.327Z,43.42
2022-08-02T15:06:05.194Z,43.91
2022-08-02T15:11:05.139Z,44.23
2022-08-02T15:16:05.152Z,44.71
2022-08-02T15:21:07.990Z,44.71
2022-08-02T15:26:05.942Z,44.64
2022-08-02T15:31:04.881Z,45.05
2022-08-02T15:36:04.969Z,45.07
2022-08-02T15:41:04.782Z,45.66
2022-08-02T15:46:04.705Z,45.00
2022-08-02T15:51:04.633Z,45.95
2022-08-02T15:56:08.708Z,46.47
2022-08-02T16:01:05.617Z,46.95
2022-08-02T16:06:04.555Z,46.66
2022-08-02T16:11:04.399Z,46.59
2022-08-02T16:16:04.336Z,47.37
2022-08-02T16:21:04.286Z,46.91
2022-08-02T16:26:04.214Z,47.39
2022-08-02T16:31:10.805Z,48.08
2022-08-02T16:36:05.142Z,48.55
2022-08-02T16:41:04.045Z,47.77
2022-08-02T16:46:03.985Z,47.27
2022-08-02T16:51:04.596Z,47.30
2022-08-02T16:56:03.850Z,48.30
2022-08-02T17:01:03.841Z,48.30
2022-08-02T17:06:03.742Z,48.30
2022-08-02T17:11:04.117Z,48.43
2022-08-02T17:16:20.671Z,48.25
2022-08-02T17:21:04.533Z,48.96
2022-08-02T17:26:03.482Z,49.85
2022-08-02T17:31:03.471Z,49.48
2022-08-02T17:36:03.385Z,50.68
2022-08-02T17:41:04.119Z,51.37
2022-08-02T17:46:03.260Z,51.07
2022-08-02T17:51:03.174Z,52.28
2022-08-02T17:56:03.122Z,52.28
2022-08-02T18:01:03.069Z,52.70
2022-08-02T18:06:02.993Z,52.90
2022-08-02T18:11:02.925Z,53.02
2022-08-02T18:16:02.888Z,52.85
2022-08-02T18:21:15.979Z,53.25
2022-08-02T18:26:03.761Z,53.08
2022-08-02T18:31:06.477Z,53.57
2022-08-02T18:36:02.709Z,53.59
2022-08-02T18:41:02.637Z,54.51
2022-08-02T18:46:06.786Z,54.41
2022-08-02T18:51:03.423Z,55.62
2022-08-02T18:56:03.453Z,56.12
2022-08-02T19:01:05.263Z,56.04
2022-08-02T19:06:03.252Z,55.97
2022-08-02T19:11:02.395Z,56.67
2022-08-02T19:16:02.157Z,57.35
2022-08-02T19:21:05.795Z,57.09
2022-08-02T19:26:03.077Z,56.82
2022-08-02T19:31:01.926Z,57.41
2022-08-02T19:36:03.655Z,57.41
2022-08-02T19:41:01.921Z,57.44
2022-08-02T19:46:01.798Z,57.74
2022-08-02T19:51:02.061Z,57.97
2022-08-02T19:56:03.231Z,57.97
2022-08-02T20:01:01.549Z,58.16
2022-08-02T20:06:01.513Z,58.46
2022-08-02T20:11:01.424Z,59.18
2022-08-02T20:16:01.403Z,59.58
2022-08-02T20:21:01.296Z,58.98
2022-08-02T20:26:02.188Z,59.21
2022-08-02T20:31:06.914Z,59.41
2022-08-02T20:36:02.096Z,59.51
2022-08-02T20:41:01.043Z,59.63
2022-08-02T20:46:01.002Z,59.63
2022-08-02T20:51:01.079Z,59.93
2022-08-02T20:56:01.858Z,60.43
2022-08-02T21:01:00.798Z,60.83
2022-08-02T21:06:00.739Z,60.66
2022-08-02T21:11:00.677Z,60.96
2022-08-02T21:16:08.181Z,61.25
2022-08-02T21:21:01.546Z,61.45
2022-08-02T21:26:00.500Z,61.58
2022-08-02T21:31:00.420Z,61.58
2022-08-02T21:36:00.361Z,61.88
2022-08-02T21:41:00.304Z,62.18
2022-08-02T21:46:00.243Z,62.07
2022-08-02T21:51:00.185Z,62.37
2022-08-02T21:56:02.787Z,62.50
2022-08-02T22:01:00.049Z,62.80
2022-08-02T22:06:00.038Z,62.90
2022-08-02T22:10:59.969Z,63.20
2022-08-02T22:15:59.873Z,63.20
2022-08-02T22:20:59.801Z,63.43
2022-08-02T22:25:59.743Z,63.73
2022-08-02T22:31:00.033Z,64.12
2022-08-02T22:35:59.625Z,64.72
2022-08-02T22:40:59.559Z,64.65
2022-08-02T22:45:59.588Z,64.85
2022-08-02T22:50:59.448Z,64.98
2022-08-02T22:55:59.374Z,65.38
2022-08-02T23:00:59.513Z,65.81
2022-08-02T23:05:59.262Z,65.91
2022-08-02T23:10:59.231Z,66.34
2022-08-02T23:15:59.122Z,66.74
2022-08-02T23:20:59.065Z,66.94
2022-08-02T23:25:58.997Z,67.43
2022-08-02T23:30:58.938Z,67.93
2022-08-02T23:35:58.881Z,68.23
2022-08-02T23:40:58.801Z,68.56
2022-08-02T23:45:58.769Z,68.86
2022-08-02T23:50:58.698Z,69.06
2022-08-02T23:55:58.618Z,69.16
